createdAt,value
2018-06-22T00:01:15.585Z,99992.28
2018-06-22T00:03:43.445Z,99981.82
2018-06-22T00:06:11.097Z,100002.70
2018-06-22T00:08:38.822Z,100001.16
2018-06-22T00:11:07.727Z,99998.09
2018-06-22T00:13:36.061Z,100000.57
2018-06-22T00:16:03.911Z,100000.36
2018-06-22T00:18:31.826Z,100001.94
2018-06-22T00:20:59.413Z,99989.52
2018-06-22T00:23:27.263Z,99980.60
2018-06-22T00:25:55.017Z,99986.48
2018-06-22T00:28:22.873Z,99970.66
2018-06-22T00:30:50.910Z,99968.11
2018-06-22T00:33:18.744Z,99974.95
2018-06-22T00:35:46.457Z,99980.45
2018-06-22T00:38:15.389Z,99988.26
2018-06-22T00:40:43.217Z,99980.86
2018-06-22T00:43:10.823Z,99983.68
2018-06-22T00:45:38.630Z,99987.84
2018-06-22T00:48:06.483Z,99987.45
2018-06-22T00:50:34.091Z,99979.20
2018-06-22T00:53:01.968Z,99972.28
2018-06-22T00:55:29.773Z,99972.55
2018-06-22T00:57:57.470Z,99970.83
2018-06-22T01:00:25.191Z,99962.91
2018-06-22T01:02:53.263Z,99964.52
2018-06-22T01:05:20.973Z,99959.42
2018-06-22T01:07:48.816Z,99959.42
2018-06-22T01:10:16.580Z,99952.51
2018-06-22T01:12:44.223Z,99951.78
2018-06-22T01:15:12.117Z,99955.08
2018-06-22T01:17:39.956Z,99945.69
2018-06-22T01:20:07.611Z,99948.02
2018-06-22T01:22:35.500Z,99952.53
2018-06-22T01:25:03.440Z,99946.82
2018-06-22T01:27:31.056Z,99942.93
2018-06-22T01:29:58.963Z,99930.65
2018-06-22T01:32:26.904Z,99923.22
2018-06-22T01:34:54.536Z,99925.55
2018-06-22T01:37:22.382Z,99923.14
2018-06-22T01:39:50.209Z,99916.70
2018-06-22T01:42:17.857Z,99914.77
2018-06-22T01:44:45.709Z,99909.80
2018-06-22T01:47:13.434Z,99913.23
2018-06-22T01:49:41.067Z,99902.56
2018-06-22T01:52:08.801Z,99904.38
2018-06-22T01:54:36.665Z,99893.18
2018-06-22T01:57:04.304Z,99889.30
2018-06-22T01:59:32.803Z,99884.55
2018-06-22T02:02:00.579Z,99885.02
2018-06-22T02:04:28.509Z,99873.95
2018-06-22T02:06:56.358Z,99880.31
2018-06-22T02:09:24.125Z,99865.80
2018-06-22T02:11:51.784Z,99875.31
2018-06-22T02:14:19.660Z,99865.21
2018-06-22T02:16:47.476Z,99867.55
2018-06-22T02:19:15.068Z,99857.30
2018-06-22T02:21:42.899Z,99860.46
2018-06-22T02:24:10.738Z,99865.00
2018-06-22T02:26:38.364Z,99868.29
2018-06-22T02:29:06.100Z,99878.16
2018-06-22T02:31:33.874Z,99879.63
2018-06-22T02:34:01.529Z,99870.76
2018-06-22T02:36:29.826Z,99866.36
2018-06-22T02:38:57.787Z,99857.97
2018-06-22T02:41:25.585Z,99854.08
2018-06-22T02:43:53.462Z,99851.29
2018-06-22T02:46:21.328Z,99845.72
2018-06-22T02:48:48.949Z,99841.70
2018-06-22T02:51:16.777Z,99843.16
2018-06-22T02:53:44.715Z,99834.78
2018-06-22T02:56:12.357Z,99829.31
2018-06-22T02:58:40.261Z,99830.91
2018-06-22T03:01:08.211Z,99816.31
2018-06-22T03:03:35.878Z,99810.74
2018-06-22T03:06:03.956Z,99810.02
2018-06-22T03:08:31.912Z,99803.96
2018-06-22T03:10:59.536Z,99807.47
2018-06-22T03:13:27.304Z,99806.26
2018-06-22T03:15:55.049Z,99801.69
2018-06-22T03:18:22.668Z,99795.08
2018-06-22T03:20:50.528Z,99786.70
2018-06-22T03:23:18.350Z,99793.40
2018-06-22T03:25:45.935Z,99789.86
2018-06-22T03:28:13.701Z,99793.19
2018-06-22T03:30:41.633Z,99788.92
2018-06-22T03:33:09.227Z,99779.20
2018-06-22T03:35:37.106Z,99768.96
2018-06-22T03:38:04.927Z,99763.39
2018-06-22T03:40:39.451Z,99760.37
2018-06-22T03:43:07.199Z,99764.73
2018-06-22T03:45:34.797Z,99640.71
2018-06-22T03:48:02.629Z,99764.13
2018-06-22T03:50:30.467Z,99763.98
2018-06-22T03:52:58.264Z,99762.13
2018-06-22T03:55:26.143Z,99758.38
2018-06-22T03:57:53.929Z,99762.05
2018-06-22T04:00:21.694Z,99754.02
2018-06-22T04:02:49.532Z,99762.66
2018-06-22T04:05:17.396Z,99752.95
2018-06-22T04:07:45.328Z,99754.28
2018-06-22T04:10:13.065Z,99746.86
2018-06-22T04:12:40.885Z,99748.20
2018-06-22T04:15:08.457Z,99749.59
2018-06-22T04:17:43.631Z,99738.02
2018-06-22T04:20:11.346Z,99727.95
2018-06-22T04:22:39.193Z,99728.09
2018-06-22T04:25:06.823Z,99726.03
2018-06-22T04:27:34.560Z,99717.53
2018-06-22T04:30:02.440Z,99710.76
2018-06-22T04:32:30.058Z,99708.34
2018-06-22T04:34:57.940Z,99708.48
2018-06-22T04:37:25.826Z,99702.27
2018-06-22T04:39:53.509Z,99701.41
2018-06-22T04:42:21.345Z,99698.52
2018-06-22T04:44:49.159Z,99697.44
2018-06-22T04:47:16.726Z,99687.86
2018-06-22T04:49:44.544Z,99678.75
2018-06-22T04:52:12.408Z,99661.49
2018-06-22T04:54:40.029Z,99661.97
2018-06-22T04:57:07.864Z,99662.11
2018-06-22T04:59:35.588Z,99657.50
2018-06-22T05:02:03.256Z,99651.07
2018-06-22T05:04:31.059Z,99641.63
2018-06-22T05:06:58.884Z,99636.88
2018-06-22T05:09:26.880Z,99637.02
2018-06-22T05:11:54.593Z,99636.80
2018-06-22T05:14:22.486Z,99625.38
2018-06-22T05:16:50.110Z,99615.42
2018-06-22T05:19:17.946Z,99614.83
2018-06-22T05:21:45.690Z,99605.59
2018-06-22T05:24:13.343Z,99599.38
2018-06-22T05:26:41.806Z,99595.38
2018-06-22T05:29:10.290Z,99586.02
2018-06-22T05:31:37.890Z,99580.18
2018-06-22T05:34:05.490Z,99584.80
2018-06-22T05:36:33.495Z,99573.77
2018-06-22T05:39:01.173Z,99579.59
2018-06-22T05:41:28.935Z,99564.16
2018-06-22T05:43:56.706Z,99555.78
2018-06-22T05:46:24.398Z,99562.73
2018-06-22T05:48:52.199Z,99555.94
2018-06-22T05:51:20.084Z,99550.50
2018-06-22T05:53:47.760Z,99543.73
2018-06-22T05:56:15.701Z,99537.05
2018-06-22T05:58:43.440Z,99534.73
2018-06-22T06:01:11.105Z,99524.03
2018-06-22T06:03:38.971Z,99521.23
2018-06-22T06:06:06.762Z,99508.33
2018-06-22T06:08:34.458Z,99502.64
2018-06-22T06:11:02.494Z,99501.30
2018-06-22T06:13:30.379Z,99492.30
2018-06-22T06:15:58.070Z,99484.27
2018-06-22T06:18:25.852Z,99482.45
2018-06-22T06:20:53.665Z,99483.17
2018-06-22T06:23:21.292Z,99472.83
2018-06-22T06:25:48.985Z,99473.03
2018-06-22T06:28:16.902Z,99463.92
2018-06-22T06:30:44.532Z,99459.91
2018-06-22T06:33:12.462Z,99460.77
2018-06-22T06:35:40.242Z,99461.97
2018-06-22T06:38:07.978Z,99447.95
2018-06-22T06:40:35.779Z,99447.69
2018-06-22T06:43:03.520Z,99440.38
2018-06-22T06:45:31.158Z,99430.88
2018-06-22T06:47:59.033Z,99429.62
2018-06-22T06:50:26.942Z,99435.72
2018-06-22T06:52:54.547Z,99422.07
2018-06-22T06:55:22.275Z,99420.59
2018-06-22T06:57:50.152Z,99416.31
2018-06-22T07:00:17.754Z,99414.70
2018-06-22T07:02:45.531Z,99407.73
2018-06-22T07:05:13.218Z,99408.11
2018-06-22T07:07:40.849Z,99402.62
2018-06-22T07:10:08.721Z,99404.16
2018-06-22T07:12:36.605Z,99395.86
2018-06-22T07:15:04.283Z,99397.91
2018-06-22T07:17:32.052Z,99396.78
2018-06-22T07:19:59.831Z,99397.50
2018-06-22T07:22:27.469Z,99401.09
2018-06-22T07:24:55.218Z,99275.42
2018-06-22T07:27:22.959Z,99395.66
2018-06-22T07:29:50.620Z,99400.73
2018-06-22T07:32:18.485Z,99397.78
2018-06-22T07:34:46.321Z,99403.85
2018-06-22T07:37:13.982Z,99411.26
2018-06-22T07:39:41.789Z,99402.58
2018-06-22T07:42:09.506Z,99408.16
2018-06-22T07:44:37.177Z,99412.38
2018-06-22T07:47:04.965Z,99399.70
2018-06-22T07:49:32.705Z,99411.24
2018-06-22T07:52:00.310Z,99413.92
2018-06-22T07:54:28.049Z,99412.23
2018-06-22T07:56:55.852Z,99415.91
2018-06-22T07:59:23.415Z,99414.34
2018-06-22T08:01:51.108Z,99413.14
2018-06-22T08:04:18.893Z,99414.77
2018-06-22T08:06:46.479Z,99418.20
2018-06-22T08:09:14.170Z,99421.81
2018-06-22T08:11:42.017Z,99415.88
2018-06-22T08:14:09.755Z,99421.51
2018-06-22T08:16:37.553Z,99426.66
2018-06-22T08:19:05.348Z,99313.63
2018-06-22T08:21:32.952Z,99418.46
2018-06-22T08:24:00.777Z,99422.03
2018-06-22T08:26:28.527Z,99415.04
2018-06-22T08:28:56.108Z,99417.06
2018-06-22T08:31:24.042Z,99429.62
2018-06-22T08:33:51.814Z,99411.44
2018-06-22T08:36:19.493Z,99418.33
2018-06-22T08:38:47.355Z,99410.12
2018-06-22T08:41:15.111Z,99409.67
2018-06-22T08:43:43.663Z,99426.12
2018-06-22T08:46:11.385Z,99426.53
2018-06-22T08:48:39.239Z,99422.70
2018-06-22T08:51:06.854Z,99421.05
2018-06-22T08:53:34.610Z,99292.61
2018-06-22T08:56:02.405Z,99425.72
2018-06-22T08:58:30.087Z,99414.83
2018-06-22T09:00:57.853Z,99415.09
2018-06-22T09:03:25.729Z,99405.63
2018-06-22T09:05:53.438Z,99385.84
2018-06-22T09:08:21.160Z,99409.55
2018-06-22T09:10:48.917Z,99403.34
2018-06-22T09:13:16.527Z,99399.34
2018-06-22T09:15:44.453Z,99390.38
2018-06-22T09:18:12.229Z,99384.04
2018-06-22T09:20:39.836Z,99390.23
2018-06-22T09:23:07.699Z,99380.03
2018-06-22T09:25:35.594Z,99380.89
2018-06-22T09:28:03.262Z,99279.95
2018-06-22T09:30:31.069Z,99382.56
2018-06-22T09:32:58.853Z,99379.89
2018-06-22T09:35:26.543Z,99376.87
2018-06-22T09:37:54.320Z,99378.21
2018-06-22T09:40:22.108Z,99370.67
2018-06-22T09:42:49.893Z,99371.16
2018-06-22T09:45:17.641Z,99366.45
2018-06-22T09:47:45.379Z,99355.27
2018-06-22T09:50:13.016Z,99356.12
2018-06-22T09:52:40.751Z,99347.25
2018-06-22T09:55:08.563Z,99359.27
2018-06-22T09:57:36.183Z,99343.03
2018-06-22T10:00:04.097Z,99342.17
2018-06-22T10:02:31.874Z,99334.53
2018-06-22T10:04:59.542Z,99331.35
2018-06-22T10:07:27.332Z,99326.52
2018-06-22T10:09:55.200Z,99323.34
2018-06-22T10:12:22.787Z,99318.50
2018-06-22T10:14:50.519Z,99191.00
2018-06-22T10:17:18.405Z,99163.09
2018-06-22T10:19:46.056Z,99305.89
2018-06-22T10:22:13.882Z,99313.05
2018-06-22T10:24:41.688Z,99309.42
2018-06-22T10:27:09.353Z,99301.75
2018-06-22T10:29:37.152Z,99300.08
2018-06-22T10:32:04.981Z,99305.04
2018-06-22T10:34:32.638Z,99303.70
2018-06-22T10:37:00.456Z,99297.03
2018-06-22T10:39:28.516Z,99296.41
2018-06-22T10:41:56.180Z,99291.55
2018-06-22T10:44:24.037Z,99288.88
2018-06-22T10:46:51.895Z,99288.39
2018-06-22T10:49:19.528Z,99305.63
2018-06-22T10:51:47.562Z,99291.28
2018-06-22T10:54:15.275Z,99292.13
2018-06-22T10:56:43.680Z,99153.08
2018-06-22T10:59:12.004Z,99273.64
2018-06-22T11:01:39.939Z,99275.83
2018-06-22T11:04:07.863Z,99266.83
2018-06-22T11:06:35.833Z,99279.36
2018-06-22T11:09:06.065Z,99282.38
2018-06-22T11:11:33.859Z,99277.89
2018-06-22T11:14:02.045Z,99280.56
2018-06-22T11:16:29.939Z,99296.08
2018-06-22T11:18:57.830Z,99296.08
2018-06-22T11:21:25.813Z,99286.59
2018-06-22T11:23:53.600Z,99289.64
2018-06-22T11:26:21.178Z,99285.36
2018-06-22T11:28:49.132Z,99281.56
2018-06-22T11:31:16.939Z,99293.45
2018-06-22T11:33:44.558Z,99298.80
2018-06-22T11:36:12.424Z,99303.01
2018-06-22T11:38:40.181Z,99296.56
2018-06-22T11:41:07.937Z,99293.04
2018-06-22T11:43:35.694Z,99303.45
2018-06-22T11:46:03.424Z,99300.17
2018-06-22T11:48:31.048Z,99307.33
2018-06-22T11:50:58.888Z,99300.52
2018-06-22T11:53:26.713Z,99301.70
2018-06-22T11:55:54.318Z,99299.03
2018-06-22T11:58:22.146Z,99305.58
2018-06-22T12:00:50.510Z,99304.48
2018-06-22T12:03:18.170Z,99315.52
2018-06-22T12:05:46.134Z,99310.17
2018-06-22T12:08:13.868Z,99310.52
2018-06-22T12:10:41.685Z,99302.16
2018-06-22T12:13:09.444Z,99169.58
2018-06-22T12:15:37.189Z,99303.48
2018-06-22T12:18:05.099Z,99300.81
2018-06-22T12:20:33.027Z,99273.89
2018-06-22T12:23:00.767Z,99305.03
2018-06-22T12:25:28.484Z,99301.27
2018-06-22T12:27:56.425Z,99305.95
2018-06-22T12:30:24.184Z,99304.48
2018-06-22T12:32:51.872Z,99312.37
2018-06-22T12:35:19.715Z,99321.96
2018-06-22T12:37:47.709Z,99317.81
2018-06-22T12:40:15.388Z,99321.69
2018-06-22T12:42:43.182Z,99319.97
2018-06-22T12:45:11.058Z,99303.94
2018-06-22T12:47:38.695Z,99319.49
2018-06-22T12:50:06.506Z,99311.67
2018-06-22T12:52:34.358Z,99319.22
2018-06-22T12:55:02.079Z,99318.94
2018-06-22T12:57:29.852Z,99312.50
2018-06-22T12:59:57.685Z,99315.86
2018-06-22T13:02:25.282Z,99312.08
2018-06-22T13:04:52.983Z,99314.34
2018-06-22T13:07:20.791Z,99309.67
2018-06-22T13:09:48.428Z,99309.05
2018-06-22T13:12:17.325Z,99303.08
2018-06-22T13:14:45.116Z,99311.00
2018-06-22T13:17:12.770Z,99318.17
2018-06-22T13:19:40.536Z,99319.36
2018-06-22T13:22:08.556Z,99315.36
2018-06-22T13:24:36.231Z,99321.19
2018-06-22T13:27:04.056Z,99320.36
2018-06-22T13:29:31.934Z,99313.02
2018-06-22T13:31:59.614Z,99313.02
2018-06-22T13:34:27.403Z,99321.05
2018-06-22T13:36:55.291Z,99335.76
2018-06-22T13:39:22.884Z,99331.88
2018-06-22T13:41:50.713Z,99327.88
2018-06-22T13:44:18.481Z,99336.41
2018-06-22T13:46:46.181Z,99333.84
2018-06-22T13:49:13.859Z,99326.92
2018-06-22T13:51:41.715Z,99327.06
2018-06-22T13:54:09.519Z,99325.52
2018-06-22T13:56:37.591Z,99342.70
2018-06-22T13:59:05.540Z,99328.61
2018-06-22T14:01:34.294Z,99327.89
2018-06-22T14:04:07.814Z,99332.03
2018-06-22T14:06:41.061Z,99330.84
2018-06-22T14:09:11.731Z,99337.18
2018-06-22T14:11:39.671Z,99319.42
2018-06-22T14:14:07.359Z,99320.28
2018-06-22T14:16:35.404Z,99317.95
2018-06-22T14:19:03.015Z,99310.06
2018-06-22T14:21:30.795Z,99185.89
2018-06-22T14:23:58.938Z,99313.59
2018-06-22T14:26:26.557Z,99306.29
2018-06-22T14:28:54.140Z,99301.80
2018-06-22T14:31:22.285Z,99293.27
2018-06-22T14:33:49.980Z,99297.98
2018-06-22T14:36:17.595Z,99303.69
2018-06-22T14:38:45.500Z,99306.22
2018-06-22T14:41:13.116Z,99305.45
2018-06-22T14:43:40.833Z,99296.81
2018-06-22T14:46:08.884Z,99308.06
2018-06-22T14:48:36.505Z,99308.80
2018-06-22T14:51:04.239Z,99304.03
2018-06-22T14:53:37.615Z,99311.41
2018-06-22T14:56:10.935Z,99303.75
2018-06-22T14:58:44.121Z,99312.74
2018-06-22T15:01:17.652Z,99311.92
2018-06-22T15:03:50.899Z,99325.44
2018-06-22T15:06:24.057Z,99308.66
2018-06-22T15:08:52.171Z,99315.94
2018-06-22T15:11:19.921Z,99318.27
2018-06-22T15:13:48.725Z,99319.27
2018-06-22T15:16:16.719Z,99320.95
2018-06-22T15:18:47.437Z,99314.27
2018-06-22T15:21:15.050Z,99319.75
2018-06-22T15:23:43.177Z,99318.89
2018-06-22T15:26:11.059Z,99332.27
2018-06-22T15:28:38.801Z,99326.72
2018-06-22T15:31:06.890Z,99314.48
2018-06-22T15:33:40.153Z,99326.65
2018-06-22T15:36:13.576Z,99317.42
2018-06-22T15:38:46.835Z,99325.94
2018-06-22T15:41:20.242Z,99318.91
2018-06-22T15:43:53.353Z,99321.58
2018-06-22T15:46:26.772Z,99323.88
2018-06-22T15:48:59.914Z,99315.99
2018-06-22T15:51:33.145Z,99320.00
2018-06-22T15:54:06.343Z,99314.52
2018-06-22T15:56:34.287Z,99319.52
2018-06-22T15:59:01.947Z,99315.86
2018-06-22T16:01:29.708Z,99329.09
2018-06-22T16:03:59.025Z,99333.81
2018-06-22T16:06:27.481Z,99331.00
2018-06-22T16:08:55.290Z,99326.00
2018-06-22T16:11:29.093Z,99334.73
2018-06-22T16:14:03.256Z,99332.55
2018-06-22T16:16:36.616Z,99342.77
2018-06-22T16:19:09.797Z,99348.45
2018-06-22T16:21:43.283Z,99349.65
2018-06-22T16:24:16.494Z,99338.95
2018-06-22T16:26:49.992Z,99344.68
2018-06-22T16:29:17.799Z,99348.17
2018-06-22T16:31:45.651Z,99339.56
2018-06-22T16:34:13.944Z,99344.44
2018-06-22T16:36:41.716Z,99334.42
2018-06-22T16:39:12.089Z,99346.31
2018-06-22T16:41:40.741Z,99335.14
2018-06-22T16:44:08.651Z,99345.36
2018-06-22T16:46:36.419Z,99342.17
2018-06-22T16:49:04.560Z,99339.86
2018-06-22T16:51:32.246Z,99342.41
2018-06-22T16:54:00.079Z,99344.94
2018-06-22T16:56:27.712Z,99342.61
2018-06-22T16:59:00.151Z,99350.97
2018-06-22T17:01:27.862Z,99347.68
2018-06-22T17:03:55.520Z,99362.63
2018-06-22T17:06:23.822Z,99353.75
2018-06-22T17:08:57.431Z,99359.58
2018-06-22T17:11:30.604Z,99351.21
2018-06-22T17:14:04.012Z,99361.29
2018-06-22T17:16:37.232Z,99353.27
2018-06-22T17:19:05.270Z,99348.73
2018-06-22T17:21:32.948Z,99358.72
2018-06-22T17:24:00.617Z,99349.88
2018-06-22T17:26:28.611Z,99355.22
2018-06-22T17:28:56.357Z,99356.19
2018-06-22T17:31:23.951Z,99349.16
2018-06-22T17:33:51.929Z,99353.30
2018-06-22T17:36:19.549Z,99358.66
2018-06-22T17:38:47.166Z,99345.42
2018-06-22T17:41:15.124Z,99357.94
2018-06-22T17:43:42.821Z,99345.08
2018-06-22T17:46:10.518Z,99221.92
2018-06-22T17:48:38.359Z,99351.39
2018-06-22T17:51:06.031Z,99339.15
2018-06-22T17:53:33.726Z,99335.14
2018-06-22T17:56:01.653Z,99347.52
2018-06-22T17:58:29.328Z,99348.52
2018-06-22T18:01:02.389Z,99350.56
2018-06-22T18:03:35.867Z,99349.57
2018-06-22T18:06:09.097Z,99344.70
2018-06-22T18:08:43.142Z,99347.03
2018-06-22T18:11:16.488Z,99345.22
2018-06-22T18:13:44.387Z,99353.24
2018-06-22T18:16:11.963Z,99348.23
2018-06-22T18:18:39.577Z,99344.70
2018-06-22T18:21:07.524Z,99339.86
2018-06-22T18:23:35.172Z,99350.19
2018-06-22T18:26:02.841Z,99352.87
2018-06-22T18:28:31.056Z,99349.84
2018-06-22T18:30:58.848Z,99351.80
2018-06-22T18:33:26.434Z,99354.63
2018-06-22T18:35:54.411Z,99361.55
2018-06-22T18:38:22.018Z,99359.02
2018-06-22T18:40:49.687Z,99345.09
2018-06-22T18:43:23.024Z,99359.56
2018-06-22T18:45:50.853Z,99360.70
2018-06-22T18:48:18.639Z,99365.84
2018-06-22T18:50:46.257Z,99365.12
2018-06-22T18:53:19.504Z,99238.55
2018-06-22T18:55:53.060Z,99362.48
2018-06-22T18:58:26.507Z,99362.61
2018-06-22T19:00:59.886Z,99376.13
2018-06-22T19:03:33.248Z,99372.25
2018-06-22T19:06:01.221Z,99364.50
2018-06-22T19:08:28.841Z,99373.99
2018-06-22T19:10:56.641Z,99376.80
2018-06-22T19:13:24.744Z,99377.80
2018-06-22T19:15:53.029Z,99377.20
2018-06-22T19:18:20.689Z,99378.55
2018-06-22T19:20:48.788Z,99379.19
2018-06-22T19:23:16.448Z,99376.66
2018-06-22T19:25:44.108Z,99370.11
2018-06-22T19:28:11.898Z,99373.73
2018-06-22T19:30:39.524Z,99369.04
2018-06-22T19:33:07.204Z,99374.87
2018-06-22T19:35:35.150Z,99379.35
2018-06-22T19:38:02.810Z,99375.86
2018-06-22T19:40:30.508Z,99378.66
2018-06-22T19:42:58.624Z,99379.14
2018-06-22T19:45:31.829Z,99389.45
2018-06-22T19:48:05.412Z,99394.80
2018-06-22T19:50:38.429Z,99378.08
2018-06-22T19:53:11.840Z,99394.73
2018-06-22T19:55:39.720Z,99382.70
2018-06-22T19:58:07.440Z,99393.39
2018-06-22T20:00:35.020Z,99382.48
2018-06-22T20:03:03.052Z,99381.28
2018-06-22T20:05:30.816Z,99396.12
2018-06-22T20:07:58.484Z,99396.12
2018-06-22T20:10:26.787Z,99389.57
2018-06-22T20:12:54.801Z,99398.92
2018-06-22T20:15:24.063Z,99398.41
2018-06-22T20:17:52.248Z,99398.92
2018-06-22T20:20:20.120Z,99395.53
2018-06-22T20:22:47.848Z,99406.94
2018-06-22T20:25:21.029Z,99398.92
2018-06-22T20:27:49.223Z,99408.27
2018-06-22T20:30:16.823Z,99406.56
2018-06-22T20:32:44.478Z,99407.89
2018-06-22T20:35:18.334Z,99406.94
2018-06-22T20:37:51.502Z,99406.43
2018-06-22T20:40:25.228Z,99417.50
2018-06-22T20:42:55.280Z,99419.31
2018-06-22T20:45:28.798Z,99423.19
2018-06-22T20:48:02.067Z,99416.02
2018-06-22T20:50:31.217Z,99414.31
2018-06-22T20:52:59.078Z,99426.72
2018-06-22T20:55:26.781Z,99420.03
2018-06-22T20:57:54.822Z,99428.39
2018-06-22T21:00:22.531Z,99428.74
2018-06-22T21:02:50.158Z,99433.48
2018-06-22T21:05:18.313Z,99427.41
2018-06-22T21:07:45.912Z,99443.31
2018-06-22T21:10:13.623Z,99446.36
2018-06-22T21:12:41.797Z,99441.84
2018-06-22T21:15:10.517Z,99450.58
2018-06-22T21:17:38.219Z,99459.45
2018-06-22T21:20:06.382Z,99456.78
2018-06-22T21:22:34.005Z,99459.32
2018-06-22T21:25:01.635Z,99458.47
2018-06-22T21:27:34.846Z,99468.30
2018-06-22T21:30:08.085Z,99473.16
2018-06-22T21:32:41.508Z,99469.16
2018-06-22T21:35:14.744Z,99473.16
2018-06-22T21:37:48.328Z,99474.50
2018-06-22T21:40:16.883Z,99485.57
2018-06-22T21:42:44.712Z,99486.91
2018-06-22T21:45:12.400Z,99484.58
2018-06-22T21:47:41.700Z,99493.08
2018-06-22T21:50:12.574Z,99499.28
2018-06-22T21:52:40.242Z,99502.44
2018-06-22T21:55:08.146Z,99511.66
2018-06-22T21:57:36.044Z,99506.44
2018-06-22T22:00:05.480Z,99515.32
2018-06-22T22:02:33.364Z,99512.64
2018-06-22T22:05:01.299Z,99522.00
2018-06-22T22:07:28.945Z,99527.48
2018-06-22T22:09:56.606Z,99523.09
2018-06-22T22:12:24.494Z,99532.09
2018-06-22T22:14:52.105Z,99537.70
2018-06-22T22:17:19.780Z,99535.64
2018-06-22T22:19:47.583Z,99547.66
2018-06-22T22:22:15.198Z,99546.33
2018-06-22T22:24:42.961Z,99552.19
2018-06-22T22:27:10.824Z,99551.67
2018-06-22T22:29:38.530Z,99557.02
2018-06-22T22:32:06.244Z,99569.42
2018-06-22T22:34:34.054Z,99571.11
2018-06-22T22:37:01.748Z,99564.55
2018-06-22T22:39:29.611Z,99559.69
2018-06-22T22:41:57.649Z,99568.22
2018-06-22T22:44:25.299Z,99568.22
2018-06-22T22:46:53.063Z,99573.05
2018-06-22T22:49:20.895Z,99570.89
2018-06-22T22:51:48.567Z,99569.55
2018-06-22T22:54:16.389Z,99580.24
2018-06-22T22:56:44.089Z,99577.06
2018-06-22T22:59:11.723Z,99581.92
2018-06-22T23:01:39.495Z,99579.73
2018-06-22T23:04:07.329Z,99581.92
2018-06-22T23:06:34.972Z,99587.14
2018-06-22T23:09:02.899Z,99584.00
2018-06-22T23:11:30.713Z,99588.48
2018-06-22T23:13:58.260Z,99587.49
2018-06-22T23:16:26.115Z,99588.00
2018-06-22T23:18:53.868Z,99585.80
2018-06-22T23:21:21.486Z,99602.19
2018-06-22T23:23:49.243Z,99603.40
2018-06-22T23:26:17.441Z,99606.93
2018-06-22T23:28:45.081Z,99615.68
2018-06-22T23:31:12.858Z,99610.81
2018-06-22T23:33:40.642Z,99612.15
2018-06-22T23:36:08.260Z,99615.20
2018-06-22T23:38:35.977Z,99616.53
2018-06-22T23:41:04.028Z,99624.05
2018-06-22T23:43:32.821Z,99617.88
2018-06-22T23:46:00.597Z,99634.26
2018-06-22T23:48:28.312Z,99628.56
2018-06-22T23:50:55.903Z,99635.59
2018-06-22T23:53:23.706Z,99637.41
2018-06-22T23:55:51.656Z,99643.27
2018-06-22T23:58:19.368Z,99648.61
